This is the latest recevied weather packets stored in our database for station/object N3LF. If no packets are shown the sender has not sent any weather packets the latest 10 day(s).
| Time | Temp. | Humidity | Pressure | Rain* | Wind** | Luminosity | Snow |
|---|---|---|---|---|---|---|---|
| 1777644863 | 15° C | 75% | 1019 hPa | 0 mm | - | 394 W/m² | - |
| 1777644561 | 15° C | 76% | 1018.9 hPa | 0 mm | - | 393 W/m² | - |
| 1777644256 | 14.44° C | 78% | 1019 hPa | 0 mm | - | 379 W/m² | - |
| 1777643953 | 14.44° C | 76% | 1019 hPa | 0 mm | - | 365 W/m² | - |
| 1777643651 | 14.44° C | 76% | 1019 hPa | 0 mm | - | 360 W/m² | - |
| 1777643348 | 13.89° C | 77% | 1018.7 hPa | 0 mm | - | 305 W/m² | - |
| 1777643044 | 13.33° C | 79% | 1018.9 hPa | 0 mm | - | 348 W/m² | - |
| 1777642741 | 12.78° C | 79% | 1018.9 hPa | 0 mm | - | 291 W/m² | - |
| 1777642438 | 12.78° C | 79% | 1018.9 hPa | 0 mm | - | 317 W/m² | - |
| 1777642134 | 12.22° C | 80% | 1018.8 hPa | 0 mm | - | 320 W/m² | - |
| 1777641830 | 12.78° C | 80% | 1018.8 hPa | 0 mm | - | 289 W/m² | - |
| 1777641526 | 12.22° C | 84% | 1018.7 hPa | 0 mm | - | 262 W/m² | - |
| 1777641221 | 11.11° C | 85% | 1018.6 hPa | 0 mm | - | 243 W/m² | - |
| 1777640918 | 10.56° C | 89% | 1019 hPa | 0 mm | - | 224 W/m² | - |
| 1777640615 | 10.56° C | 90% | 1019 hPa | 0 mm | - | 197 W/m² | - |
| 1777640311 | 10.56° C | 91% | 1018.9 hPa | 0 mm | - | 177 W/m² | - |
| 1777640007 | 11.11° C | 91% | 1018.6 hPa | 0 mm | - | 158 W/m² | - |
| 1777639704 | 10° C | 96% | 1018.5 hPa | 0 mm | - | 141 W/m² | - |
| 1777639402 | 9.44° C | 96% | 1018.5 hPa | 0 mm | - | 129 W/m² | - |
| 1777639102 | 8.89° C | 99% | 1018.4 hPa | 0 mm | - | 114 W/m² | - |
| 1777638801 | 8.89° C | 99% | 1018.5 hPa | 0 mm | - | 102 W/m² | - |
| 1777638501 | 8.33° C | 99% | 1018.5 hPa | 0 mm | - | 91 W/m² | - |
| 1777638198 | 7.78° C | 99% | 1018.6 hPa | 0 mm | - | 83 W/m² | - |
| 1777637894 | 7.22° C | 99% | 1018.4 hPa | 0 mm | - | 75 W/m² | - |
| 1777637590 | 7.22° C | 99% | 1018.4 hPa | 0 mm | - | 68 W/m² | - |
* Rain latest hour (hover to see other rain measurements)
** Current wind speed in m/s (hover to see current wind gust speed)